sensor_id;sensor_type;location;lat;lon;timestamp;P1;durP1;ratioP1;P2;durP2;ratioP2
13408;SDS011;6775;49.574;11.170;2023-03-21T00:00:48;5.07;;;3.13;;
13408;SDS011;6775;49.574;11.170;2023-03-21T00:03:20;3.43;;;3.10;;
13408;SDS011;6775;49.574;11.170;2023-03-21T00:05:49;4.20;;;3.07;;
13408;SDS011;6775;49.574;11.170;2023-03-21T00:08:18;2.93;;;2.40;;
13408;SDS011;6775;49.574;11.170;2023-03-21T00:10:48;3.97;;;2.93;;
13408;SDS011;6775;49.574;11.170;2023-03-21T00:13:21;3.37;;;2.27;;
13408;SDS011;6775;49.574;11.170;2023-03-21T00:15:51;3.27;;;2.67;;
13408;SDS011;6775;49.574;11.170;2023-03-21T00:18:40;2.50;;;2.30;;
13408;SDS011;6775;49.574;11.170;2023-03-21T00:21:12;3.53;;;2.37;;
13408;SDS011;6775;49.574;11.170;2023-03-21T00:24:01;3.47;;;2.10;;
13408;SDS011;6775;49.574;11.170;2023-03-21T00:26:30;3.50;;;2.40;;
13408;SDS011;6775;49.574;11.170;2023-03-21T00:28:58;3.23;;;2.43;;
13408;SDS011;6775;49.574;11.170;2023-03-21T00:31:26;3.70;;;2.47;;
13408;SDS011;6775;49.574;11.170;2023-03-21T00:33:54;3.40;;;2.23;;
13408;SDS011;6775;49.574;11.170;2023-03-21T00:36:22;3.47;;;2.43;;
13408;SDS011;6775;49.574;11.170;2023-03-21T00:38:51;4.03;;;2.97;;
13408;SDS011;6775;49.574;11.170;2023-03-21T00:41:19;4.37;;;3.03;;
13408;SDS011;6775;49.574;11.170;2023-03-21T00:44:07;3.93;;;3.10;;
13408;SDS011;6775;49.574;11.170;2023-03-21T00:46:36;3.63;;;3.00;;
13408;SDS011;6775;49.574;11.170;2023-03-21T00:49:19;5.03;;;3.03;;
13408;SDS011;6775;49.574;11.170;2023-03-21T00:51:47;5.47;;;2.87;;
13408;SDS011;6775;49.574;11.170;2023-03-21T00:54:16;4.07;;;3.10;;
13408;SDS011;6775;49.574;11.170;2023-03-21T00:56:44;4.17;;;2.83;;
13408;SDS011;6775;49.574;11.170;2023-03-21T00:59:13;5.50;;;3.37;;
13408;SDS011;6775;49.574;11.170;2023-03-21T01:01:41;4.30;;;3.00;;
13408;SDS011;6775;49.574;11.170;2023-03-21T01:04:12;5.63;;;3.17;;
13408;SDS011;6775;49.574;11.170;2023-03-21T01:06:42;4.30;;;3.00;;
13408;SDS011;6775;49.574;11.170;2023-03-21T01:09:11;4.57;;;2.90;;
13408;SDS011;6775;49.574;11.170;2023-03-21T01:11:40;5.90;;;3.03;;
13408;SDS011;6775;49.574;11.170;2023-03-21T01:14:08;4.77;;;3.13;;
13408;SDS011;6775;49.574;11.170;2023-03-21T01:16:49;3.17;;;2.83;;
13408;SDS011;6775;49.574;11.170;2023-03-21T01:19:18;4.13;;;2.87;;
13408;SDS011;6775;49.574;11.170;2023-03-21T01:22:06;4.23;;;2.97;;
13408;SDS011;6775;49.574;11.170;2023-03-21T01:24:34;3.87;;;2.70;;
13408;SDS011;6775;49.574;11.170;2023-03-21T01:27:08;3.63;;;2.83;;
13408;SDS011;6775;49.574;11.170;2023-03-21T01:29:36;5.27;;;2.80;;
13408;SDS011;6775;49.574;11.170;2023-03-21T01:32:05;3.83;;;2.70;;
13408;SDS011;6775;49.574;11.170;2023-03-21T01:34:33;4.40;;;2.80;;
13408;SDS011;6775;49.574;11.170;2023-03-21T01:37:01;3.67;;;2.90;;
13408;SDS011;6775;49.574;11.170;2023-03-21T01:39:29;5.20;;;2.60;;
13408;SDS011;6775;49.574;11.170;2023-03-21T01:41:59;3.60;;;2.90;;
13408;SDS011;6775;49.574;11.170;2023-03-21T01:44:27;4.27;;;3.10;;
13408;SDS011;6775;49.574;11.170;2023-03-21T01:46:55;6.13;;;3.23;;
13408;SDS011;6775;49.574;11.170;2023-03-21T01:49:38;4.17;;;2.80;;
13408;SDS011;6775;49.574;11.170;2023-03-21T01:52:12;4.77;;;3.23;;
13408;SDS011;6775;49.574;11.170;2023-03-21T01:54:58;4.07;;;2.80;;
13408;SDS011;6775;49.574;11.170;2023-03-21T01:57:29;4.93;;;3.27;;
13408;SDS011;6775;49.574;11.170;2023-03-21T02:00:12;3.27;;;2.70;;
13408;SDS011;6775;49.574;11.170;2023-03-21T02:02:42;5.20;;;2.80;;
13408;SDS011;6775;49.574;11.170;2023-03-21T02:05:20;3.40;;;2.20;;
13408;SDS011;6775;49.574;11.170;2023-03-21T02:07:52;3.83;;;2.60;;
13408;SDS011;6775;49.574;11.170;2023-03-21T02:10:20;3.33;;;2.70;;
13408;SDS011;6775;49.574;11.170;2023-03-21T02:12:48;2.90;;;2.70;;
13408;SDS011;6775;49.574;11.170;2023-03-21T02:15:16;4.30;;;3.20;;
13408;SDS011;6775;49.574;11.170;2023-03-21T02:17:45;3.50;;;2.93;;
13408;SDS011;6775;49.574;11.170;2023-03-21T02:20:30;3.03;;;2.73;;
13408;SDS011;6775;49.574;11.170;2023-03-21T02:23:35;5.33;;;3.20;;
13408;SDS011;6775;49.574;11.170;2023-03-21T02:26:33;4.57;;;2.77;;
13408;SDS011;6775;49.574;11.170;2023-03-21T02:32:25;3.47;;;3.10;;
13408;SDS011;6775;49.574;11.170;2023-03-21T02:35:12;3.17;;;2.70;;
13408;SDS011;6775;49.574;11.170;2023-03-21T02:37:52;6.20;;;3.07;;
13408;SDS011;6775;49.574;11.170;2023-03-21T02:40:27;4.37;;;2.90;;
13408;SDS011;6775;49.574;11.170;2023-03-21T02:43:01;3.70;;;2.67;;
13408;SDS011;6775;49.574;11.170;2023-03-21T02:45:48;4.63;;;3.00;;
13408;SDS011;6775;49.574;11.170;2023-03-21T02:48:20;6.10;;;2.83;;
13408;SDS011;6775;49.574;11.170;2023-03-21T02:51:04;4.27;;;2.70;;
13408;SDS011;6775;49.574;11.170;2023-03-21T02:53:37;3.27;;;2.53;;
13408;SDS011;6775;49.574;11.170;2023-03-21T02:56:08;3.37;;;2.10;;
13408;SDS011;6775;49.574;11.170;2023-03-21T02:58:37;3.27;;;2.40;;
13408;SDS011;6775;49.574;11.170;2023-03-21T03:01:07;2.73;;;2.30;;
13408;SDS011;6775;49.574;11.170;2023-03-21T03:03:35;3.70;;;2.60;;
13408;SDS011;6775;49.574;11.170;2023-03-21T03:06:06;4.47;;;3.00;;
13408;SDS011;6775;49.574;11.170;2023-03-21T03:08:44;5.67;;;3.10;;
13408;SDS011;6775;49.574;11.170;2023-03-21T03:11:28;4.80;;;2.57;;
13408;SDS011;6775;49.574;11.170;2023-03-21T03:14:03;3.47;;;2.63;;
13408;SDS011;6775;49.574;11.170;2023-03-21T03:17:04;3.17;;;2.60;;
13408;SDS011;6775;49.574;11.170;2023-03-21T03:19:42;4.43;;;2.93;;
13408;SDS011;6775;49.574;11.170;2023-03-21T03:22:21;3.33;;;2.60;;
13408;SDS011;6775;49.574;11.170;2023-03-21T03:24:55;3.87;;;2.93;;
13408;SDS011;6775;49.574;11.170;2023-03-21T03:27:43;3.30;;;2.50;;
13408;SDS011;6775;49.574;11.170;2023-03-21T03:30:13;3.50;;;2.37;;
13408;SDS011;6775;49.574;11.170;2023-03-21T03:32:44;4.17;;;2.57;;
13408;SDS011;6775;49.574;11.170;2023-03-21T03:35:17;3.17;;;2.50;;
13408;SDS011;6775;49.574;11.170;2023-03-21T03:37:47;3.00;;;2.13;;
13408;SDS011;6775;49.574;11.170;2023-03-21T03:40:20;3.13;;;2.60;;
13408;SDS011;6775;49.574;11.170;2023-03-21T03:42:53;3.73;;;2.67;;
13408;SDS011;6775;49.574;11.170;2023-03-21T03:45:29;4.57;;;2.50;;
13408;SDS011;6775;49.574;11.170;2023-03-21T03:48:01;3.03;;;2.73;;
13408;SDS011;6775;49.574;11.170;2023-03-21T03:50:35;3.23;;;2.60;;
13408;SDS011;6775;49.574;11.170;2023-03-21T03:53:08;4.13;;;2.80;;
13408;SDS011;6775;49.574;11.170;2023-03-21T03:55:45;3.73;;;2.90;;
13408;SDS011;6775;49.574;11.170;2023-03-21T03:58:16;4.17;;;3.57;;
13408;SDS011;6775;49.574;11.170;2023-03-21T04:00:50;5.83;;;3.87;;
13408;SDS011;6775;49.574;11.170;2023-03-21T04:03:18;6.47;;;4.70;;
13408;SDS011;6775;49.574;11.170;2023-03-21T04:05:47;6.17;;;4.90;;
13408;SDS011;6775;49.574;11.170;2023-03-21T04:08:15;6.40;;;5.37;;
13408;SDS011;6775;49.574;11.170;2023-03-21T04:10:43;8.83;;;5.53;;
13408;SDS011;6775;49.574;11.170;2023-03-21T04:13:12;6.30;;;4.80;;
13408;SDS011;6775;49.574;11.170;2023-03-21T04:15:40;4.90;;;4.00;;
13408;SDS011;6775;49.574;11.170;2023-03-21T04:18:09;9.03;;;4.30;;
13408;SDS011;6775;49.574;11.170;2023-03-21T04:20:37;4.50;;;3.80;;
13408;SDS011;6775;49.574;11.170;2023-03-21T04:23:05;5.67;;;4.33;;
13408;SDS011;6775;49.574;11.170;2023-03-21T04:25:33;6.63;;;4.53;;
13408;SDS011;6775;49.574;11.170;2023-03-21T04:28:05;4.83;;;3.60;;
13408;SDS011;6775;49.574;11.170;2023-03-21T04:30:34;6.23;;;3.70;;
13408;SDS011;6775;49.574;11.170;2023-03-21T04:33:03;3.67;;;3.30;;
13408;SDS011;6775;49.574;11.170;2023-03-21T04:35:31;4.13;;;3.33;;
13408;SDS011;6775;49.574;11.170;2023-03-21T04:38:02;3.20;;;2.90;;
13408;SDS011;6775;49.574;11.170;2023-03-21T04:40:30;3.53;;;3.13;;
13408;SDS011;6775;49.574;11.170;2023-03-21T04:42:58;3.80;;;3.17;;
13408;SDS011;6775;49.574;11.170;2023-03-21T04:45:26;4.87;;;3.47;;
13408;SDS011;6775;49.574;11.170;2023-03-21T04:47:55;4.57;;;3.47;;
13408;SDS011;6775;49.574;11.170;2023-03-21T04:50:23;6.20;;;3.70;;
13408;SDS011;6775;49.574;11.170;2023-03-21T04:52:51;3.63;;;2.80;;
13408;SDS011;6775;49.574;11.170;2023-03-21T04:55:19;3.83;;;2.90;;
13408;SDS011;6775;49.574;11.170;2023-03-21T04:57:46;4.97;;;3.37;;
13408;SDS011;6775;49.574;11.170;2023-03-21T05:00:15;3.70;;;3.10;;
13408;SDS011;6775;49.574;11.170;2023-03-21T05:02:43;4.30;;;3.60;;
13408;SDS011;6775;49.574;11.170;2023-03-21T05:05:12;5.10;;;4.07;;
13408;SDS011;6775;49.574;11.170;2023-03-21T05:07:40;3.83;;;3.10;;
13408;SDS011;6775;49.574;11.170;2023-03-21T05:10:09;4.03;;;3.37;;
13408;SDS011;6775;49.574;11.170;2023-03-21T05:12:38;4.30;;;3.87;;
13408;SDS011;6775;49.574;11.170;2023-03-21T05:15:06;4.20;;;3.40;;
13408;SDS011;6775;49.574;11.170;2023-03-21T05:17:35;3.50;;;3.20;;
13408;SDS011;6775;49.574;11.170;2023-03-21T05:20:03;3.83;;;3.50;;
13408;SDS011;6775;49.574;11.170;2023-03-21T05:22:35;6.47;;;4.23;;
13408;SDS011;6775;49.574;11.170;2023-03-21T05:25:06;5.37;;;3.90;;
13408;SDS011;6775;49.574;11.170;2023-03-21T05:27:34;4.77;;;3.80;;
13408;SDS011;6775;49.574;11.170;2023-03-21T05:30:03;5.53;;;4.30;;
13408;SDS011;6775;49.574;11.170;2023-03-21T05:32:34;4.23;;;3.43;;
13408;SDS011;6775;49.574;11.170;2023-03-21T05:35:01;4.47;;;4.07;;
13408;SDS011;6775;49.574;11.170;2023-03-21T05:37:30;5.53;;;4.60;;
13408;SDS011;6775;49.574;11.170;2023-03-21T05:39:59;5.90;;;3.97;;
13408;SDS011;6775;49.574;11.170;2023-03-21T05:42:27;4.77;;;3.93;;
13408;SDS011;6775;49.574;11.170;2023-03-21T05:44:54;5.57;;;4.13;;
13408;SDS011;6775;49.574;11.170;2023-03-21T05:47:22;4.10;;;3.60;;
13408;SDS011;6775;49.574;11.170;2023-03-21T05:49:50;6.00;;;4.20;;
13408;SDS011;6775;49.574;11.170;2023-03-21T05:52:18;5.17;;;3.77;;
13408;SDS011;6775;49.574;11.170;2023-03-21T05:54:46;4.30;;;3.90;;
13408;SDS011;6775;49.574;11.170;2023-03-21T05:57:15;4.77;;;3.47;;
13408;SDS011;6775;49.574;11.170;2023-03-21T05:59:44;4.80;;;3.77;;
13408;SDS011;6775;49.574;11.170;2023-03-21T06:02:12;5.17;;;4.30;;
13408;SDS011;6775;49.574;11.170;2023-03-21T06:04:39;4.13;;;3.70;;
13408;SDS011;6775;49.574;11.170;2023-03-21T06:07:07;4.93;;;4.17;;
13408;SDS011;6775;49.574;11.170;2023-03-21T06:09:35;4.37;;;3.93;;
13408;SDS011;6775;49.574;11.170;2023-03-21T06:12:03;5.90;;;4.70;;
13408;SDS011;6775;49.574;11.170;2023-03-21T06:14:32;5.27;;;4.23;;
13408;SDS011;6775;49.574;11.170;2023-03-21T06:17:00;4.73;;;3.97;;
13408;SDS011;6775;49.574;11.170;2023-03-21T06:19:28;4.60;;;4.17;;
13408;SDS011;6775;49.574;11.170;2023-03-21T06:21:56;5.57;;;4.13;;
13408;SDS011;6775;49.574;11.170;2023-03-21T06:24:24;5.90;;;5.07;;
13408;SDS011;6775;49.574;11.170;2023-03-21T06:26:52;6.47;;;4.73;;
13408;SDS011;6775;49.574;11.170;2023-03-21T06:29:21;5.73;;;3.83;;
13408;SDS011;6775;49.574;11.170;2023-03-21T06:31:50;7.07;;;4.70;;
13408;SDS011;6775;49.574;11.170;2023-03-21T06:34:18;5.00;;;4.30;;
13408;SDS011;6775;49.574;11.170;2023-03-21T06:36:45;6.20;;;4.10;;
13408;SDS011;6775;49.574;11.170;2023-03-21T06:39:13;4.63;;;4.23;;
13408;SDS011;6775;49.574;11.170;2023-03-21T06:41:41;5.83;;;3.80;;
13408;SDS011;6775;49.574;11.170;2023-03-21T06:44:09;4.67;;;4.03;;
13408;SDS011;6775;49.574;11.170;2023-03-21T06:46:37;5.33;;;4.13;;
13408;SDS011;6775;49.574;11.170;2023-03-21T06:49:06;4.37;;;3.57;;
13408;SDS011;6775;49.574;11.170;2023-03-21T06:51:34;5.77;;;4.27;;
13408;SDS011;6775;49.574;11.170;2023-03-21T06:54:02;5.00;;;4.00;;
13408;SDS011;6775;49.574;11.170;2023-03-21T06:56:30;5.63;;;3.87;;
13408;SDS011;6775;49.574;11.170;2023-03-21T06:58:58;4.47;;;3.40;;
13408;SDS011;6775;49.574;11.170;2023-03-21T07:01:25;5.10;;;3.50;;
13408;SDS011;6775;49.574;11.170;2023-03-21T07:03:55;3.80;;;3.33;;
13408;SDS011;6775;49.574;11.170;2023-03-21T07:06:26;4.40;;;3.73;;
13408;SDS011;6775;49.574;11.170;2023-03-21T07:08:54;3.77;;;3.47;;
13408;SDS011;6775;49.574;11.170;2023-03-21T07:11:22;3.80;;;3.40;;
13408;SDS011;6775;49.574;11.170;2023-03-21T07:13:50;4.10;;;3.30;;
13408;SDS011;6775;49.574;11.170;2023-03-21T07:16:18;3.70;;;3.30;;
13408;SDS011;6775;49.574;11.170;2023-03-21T07:18:47;7.03;;;3.73;;
13408;SDS011;6775;49.574;11.170;2023-03-21T07:21:15;4.50;;;3.10;;
13408;SDS011;6775;49.574;11.170;2023-03-21T07:23:45;4.87;;;3.00;;
13408;SDS011;6775;49.574;11.170;2023-03-21T07:26:15;3.70;;;3.13;;
13408;SDS011;6775;49.574;11.170;2023-03-21T07:28:43;4.50;;;3.43;;
13408;SDS011;6775;49.574;11.170;2023-03-21T07:31:12;4.13;;;3.07;;
13408;SDS011;6775;49.574;11.170;2023-03-21T07:33:42;3.93;;;2.90;;
13408;SDS011;6775;49.574;11.170;2023-03-21T07:36:10;3.57;;;3.10;;
13408;SDS011;6775;49.574;11.170;2023-03-21T07:38:40;5.33;;;4.03;;
13408;SDS011;6775;49.574;11.170;2023-03-21T07:41:09;6.50;;;5.90;;
13408;SDS011;6775;49.574;11.170;2023-03-21T07:43:37;4.90;;;4.13;;
13408;SDS011;6775;49.574;11.170;2023-03-21T07:46:05;5.27;;;3.73;;
13408;SDS011;6775;49.574;11.170;2023-03-21T07:48:33;4.43;;;3.60;;
13408;SDS011;6775;49.574;11.170;2023-03-21T07:51:02;5.50;;;3.27;;
13408;SDS011;6775;49.574;11.170;2023-03-21T07:53:31;4.73;;;3.03;;
13408;SDS011;6775;49.574;11.170;2023-03-21T07:55:59;5.17;;;2.93;;
13408;SDS011;6775;49.574;11.170;2023-03-21T07:58:28;5.63;;;3.30;;
13408;SDS011;6775;49.574;11.170;2023-03-21T08:00:59;4.47;;;2.90;;
13408;SDS011;6775;49.574;11.170;2023-03-21T08:03:27;4.57;;;3.20;;
13408;SDS011;6775;49.574;11.170;2023-03-21T08:05:57;3.73;;;2.73;;
13408;SDS011;6775;49.574;11.170;2023-03-21T08:08:26;3.83;;;2.53;;
13408;SDS011;6775;49.574;11.170;2023-03-21T08:10:54;6.30;;;3.27;;
13408;SDS011;6775;49.574;11.170;2023-03-21T08:13:21;3.30;;;3.00;;
13408;SDS011;6775;49.574;11.170;2023-03-21T08:15:52;3.97;;;3.10;;
13408;SDS011;6775;49.574;11.170;2023-03-21T08:18:20;4.50;;;3.00;;
13408;SDS011;6775;49.574;11.170;2023-03-21T08:20:50;5.37;;;3.30;;
13408;SDS011;6775;49.574;11.170;2023-03-21T08:23:18;4.40;;;2.60;;
13408;SDS011;6775;49.574;11.170;2023-03-21T08:25:49;4.47;;;3.20;;
13408;SDS011;6775;49.574;11.170;2023-03-21T08:28:18;5.53;;;2.80;;
13408;SDS011;6775;49.574;11.170;2023-03-21T08:30:46;3.50;;;2.87;;
13408;SDS011;6775;49.574;11.170;2023-03-21T08:33:15;3.17;;;2.87;;
13408;SDS011;6775;49.574;11.170;2023-03-21T08:35:43;5.30;;;3.10;;
13408;SDS011;6775;49.574;11.170;2023-03-21T08:38:12;4.03;;;3.07;;
13408;SDS011;6775;49.574;11.170;2023-03-21T08:40:39;3.27;;;2.77;;
13408;SDS011;6775;49.574;11.170;2023-03-21T08:43:07;4.07;;;3.07;;
13408;SDS011;6775;49.574;11.170;2023-03-21T08:45:35;3.47;;;2.73;;
13408;SDS011;6775;49.574;11.170;2023-03-21T08:48:03;2.93;;;2.47;;
13408;SDS011;6775;49.574;11.170;2023-03-21T08:50:33;3.80;;;3.00;;
13408;SDS011;6775;49.574;11.170;2023-03-21T08:53:01;4.77;;;2.80;;
13408;SDS011;6775;49.574;11.170;2023-03-21T08:55:29;3.30;;;2.50;;
13408;SDS011;6775;49.574;11.170;2023-03-21T08:57:58;3.20;;;2.27;;
13408;SDS011;6775;49.574;11.170;2023-03-21T09:00:26;2.73;;;2.10;;
13408;SDS011;6775;49.574;11.170;2023-03-21T09:02:54;3.87;;;2.17;;
13408;SDS011;6775;49.574;11.170;2023-03-21T09:05:24;3.57;;;2.40;;
13408;SDS011;6775;49.574;11.170;2023-03-21T09:07:54;3.43;;;2.37;;
13408;SDS011;6775;49.574;11.170;2023-03-21T09:10:22;3.97;;;2.60;;
13408;SDS011;6775;49.574;11.170;2023-03-21T09:12:51;4.90;;;3.17;;
13408;SDS011;6775;49.574;11.170;2023-03-21T09:15:20;4.90;;;3.17;;
13408;SDS011;6775;49.574;11.170;2023-03-21T09:17:50;4.80;;;2.27;;
13408;SDS011;6775;49.574;11.170;2023-03-21T09:20:19;5.93;;;2.47;;
13408;SDS011;6775;49.574;11.170;2023-03-21T09:22:51;4.50;;;2.40;;
13408;SDS011;6775;49.574;11.170;2023-03-21T09:25:21;3.50;;;2.30;;
13408;SDS011;6775;49.574;11.170;2023-03-21T09:27:49;3.10;;;2.40;;
13408;SDS011;6775;49.574;11.170;2023-03-21T09:30:19;3.53;;;2.87;;
13408;SDS011;6775;49.574;11.170;2023-03-21T09:32:51;4.60;;;2.33;;
13408;SDS011;6775;49.574;11.170;2023-03-21T09:35:20;5.30;;;2.80;;
13408;SDS011;6775;49.574;11.170;2023-03-21T09:37:49;5.63;;;3.10;;
13408;SDS011;6775;49.574;11.170;2023-03-21T09:40:18;4.27;;;2.77;;
13408;SDS011;6775;49.574;11.170;2023-03-21T09:42:55;5.17;;;2.80;;
13408;SDS011;6775;49.574;11.170;2023-03-21T09:45:31;5.27;;;3.23;;
13408;SDS011;6775;49.574;11.170;2023-03-21T09:48:08;5.07;;;3.20;;
13408;SDS011;6775;49.574;11.170;2023-03-21T09:50:47;5.23;;;2.57;;
13408;SDS011;6775;49.574;11.170;2023-03-21T09:53:17;2.70;;;2.10;;
13408;SDS011;6775;49.574;11.170;2023-03-21T09:55:52;4.57;;;2.30;;
13408;SDS011;6775;49.574;11.170;2023-03-21T09:58:22;3.27;;;2.43;;
13408;SDS011;6775;49.574;11.170;2023-03-21T10:00:53;3.07;;;2.20;;
13408;SDS011;6775;49.574;11.170;2023-03-21T10:03:28;3.00;;;2.03;;
13408;SDS011;6775;49.574;11.170;2023-03-21T10:06:02;3.70;;;2.13;;
13408;SDS011;6775;49.574;11.170;2023-03-21T10:08:34;2.70;;;2.10;;
13408;SDS011;6775;49.574;11.170;2023-03-21T10:11:05;2.97;;;1.93;;
13408;SDS011;6775;49.574;11.170;2023-03-21T10:13:39;5.33;;;2.40;;
13408;SDS011;6775;49.574;11.170;2023-03-21T10:16:11;3.80;;;2.23;;
13408;SDS011;6775;49.574;11.170;2023-03-21T10:18:42;2.83;;;2.20;;
13408;SDS011;6775;49.574;11.170;2023-03-21T10:21:17;3.77;;;2.40;;
13408;SDS011;6775;49.574;11.170;2023-03-21T10:24:07;2.50;;;2.30;;
13408;SDS011;6775;49.574;11.170;2023-03-21T10:26:39;5.47;;;2.60;;
13408;SDS011;6775;49.574;11.170;2023-03-21T10:29:08;5.80;;;2.40;;
13408;SDS011;6775;49.574;11.170;2023-03-21T10:31:39;4.17;;;1.80;;
13408;SDS011;6775;49.574;11.170;2023-03-21T10:34:10;2.83;;;2.13;;
13408;SDS011;6775;49.574;11.170;2023-03-21T10:36:43;3.53;;;1.90;;
13408;SDS011;6775;49.574;11.170;2023-03-21T10:39:14;3.97;;;1.90;;
13408;SDS011;6775;49.574;11.170;2023-03-21T10:41:49;3.93;;;2.40;;
13408;SDS011;6775;49.574;11.170;2023-03-21T10:44:17;3.97;;;2.40;;
13408;SDS011;6775;49.574;11.170;2023-03-21T10:46:50;3.40;;;2.30;;
13408;SDS011;6775;49.574;11.170;2023-03-21T10:49:19;3.17;;;2.10;;
13408;SDS011;6775;49.574;11.170;2023-03-21T10:51:48;3.27;;;2.57;;
13408;SDS011;6775;49.574;11.170;2023-03-21T10:54:19;3.43;;;2.40;;
13408;SDS011;6775;49.574;11.170;2023-03-21T10:56:54;2.83;;;1.87;;
13408;SDS011;6775;49.574;11.170;2023-03-21T10:59:24;3.40;;;1.70;;
13408;SDS011;6775;49.574;11.170;2023-03-21T11:01:54;3.10;;;2.10;;
13408;SDS011;6775;49.574;11.170;2023-03-21T11:04:23;4.43;;;2.93;;
13408;SDS011;6775;49.574;11.170;2023-03-21T11:06:53;3.40;;;2.30;;
13408;SDS011;6775;49.574;11.170;2023-03-21T11:09:25;3.97;;;2.47;;
13408;SDS011;6775;49.574;11.170;2023-03-21T11:12:10;2.67;;;1.90;;
13408;SDS011;6775;49.574;11.170;2023-03-21T11:14:40;2.70;;;2.20;;
13408;SDS011;6775;49.574;11.170;2023-03-21T11:17:20;3.07;;;2.00;;
13408;SDS011;6775;49.574;11.170;2023-03-21T11:19:50;3.47;;;2.30;;
13408;SDS011;6775;49.574;11.170;2023-03-21T11:22:20;3.03;;;1.93;;
13408;SDS011;6775;49.574;11.170;2023-03-21T11:24:51;4.27;;;1.60;;
13408;SDS011;6775;49.574;11.170;2023-03-21T11:27:24;3.13;;;1.80;;
13408;SDS011;6775;49.574;11.170;2023-03-21T11:29:54;3.77;;;2.43;;
13408;SDS011;6775;49.574;11.170;2023-03-21T11:32:25;2.50;;;2.03;;
13408;SDS011;6775;49.574;11.170;2023-03-21T11:35:00;6.30;;;2.27;;
13408;SDS011;6775;49.574;11.170;2023-03-21T11:37:31;1.73;;;1.60;;
13408;SDS011;6775;49.574;11.170;2023-03-21T11:40:06;3.07;;;1.70;;
13408;SDS011;6775;49.574;11.170;2023-03-21T11:42:46;2.40;;;1.70;;
13408;SDS011;6775;49.574;11.170;2023-03-21T11:45:17;3.23;;;1.60;;
13408;SDS011;6775;49.574;11.170;2023-03-21T11:47:46;2.50;;;1.97;;
13408;SDS011;6775;49.574;11.170;2023-03-21T11:50:17;1.83;;;1.67;;
13408;SDS011;6775;49.574;11.170;2023-03-21T11:52:50;3.83;;;1.90;;
13408;SDS011;6775;49.574;11.170;2023-03-21T11:55:39;3.00;;;2.10;;
13408;SDS011;6775;49.574;11.170;2023-03-21T11:58:20;2.40;;;2.00;;
13408;SDS011;6775;49.574;11.170;2023-03-21T12:01:01;3.13;;;1.90;;
13408;SDS011;6775;49.574;11.170;2023-03-21T12:03:38;3.13;;;2.40;;
13408;SDS011;6775;49.574;11.170;2023-03-21T12:06:34;2.67;;;1.80;;
13408;SDS011;6775;49.574;11.170;2023-03-21T12:09:13;1.93;;;1.47;;
13408;SDS011;6775;49.574;11.170;2023-03-21T12:12:02;2.90;;;2.00;;
13408;SDS011;6775;49.574;11.170;2023-03-21T12:15:07;1.60;;;1.50;;
13408;SDS011;6775;49.574;11.170;2023-03-21T12:17:42;2.03;;;1.70;;
13408;SDS011;6775;49.574;11.170;2023-03-21T12:20:22;2.07;;;1.60;;
13408;SDS011;6775;49.574;11.170;2023-03-21T12:26:15;2.50;;;1.70;;
13408;SDS011;6775;49.574;11.170;2023-03-21T12:28:56;3.83;;;2.57;;
13408;SDS011;6775;49.574;11.170;2023-03-21T12:31:36;4.70;;;2.40;;
13408;SDS011;6775;49.574;11.170;2023-03-21T12:34:23;3.97;;;3.00;;
13408;SDS011;6775;49.574;11.170;2023-03-21T12:37:04;3.33;;;2.80;;
13408;SDS011;6775;49.574;11.170;2023-03-21T12:39:42;3.70;;;2.57;;
13408;SDS011;6775;49.574;11.170;2023-03-21T12:42:29;3.50;;;2.20;;
13408;SDS011;6775;49.574;11.170;2023-03-21T12:45:14;2.97;;;2.23;;
13408;SDS011;6775;49.574;11.170;2023-03-21T12:47:48;2.30;;;2.10;;
13408;SDS011;6775;49.574;11.170;2023-03-21T12:50:19;2.43;;;1.90;;
13408;SDS011;6775;49.574;11.170;2023-03-21T12:52:51;3.40;;;2.60;;
13408;SDS011;6775;49.574;11.170;2023-03-21T12:55:22;3.33;;;2.07;;
13408;SDS011;6775;49.574;11.170;2023-03-21T12:57:53;2.97;;;2.00;;
13408;SDS011;6775;49.574;11.170;2023-03-21T13:00:31;3.03;;;2.10;;
13408;SDS011;6775;49.574;11.170;2023-03-21T13:03:05;2.30;;;2.00;;
13408;SDS011;6775;49.574;11.170;2023-03-21T13:05:38;1.80;;;1.70;;
13408;SDS011;6775;49.574;11.170;2023-03-21T13:08:13;3.47;;;2.27;;
13408;SDS011;6775;49.574;11.170;2023-03-21T13:10:44;2.20;;;1.90;;
13408;SDS011;6775;49.574;11.170;2023-03-21T13:13:15;3.00;;;2.50;;
13408;SDS011;6775;49.574;11.170;2023-03-21T13:18:55;2.80;;;1.90;;
13408;SDS011;6775;49.574;11.170;2023-03-21T13:21:35;2.90;;;2.00;;
13408;SDS011;6775;49.574;11.170;2023-03-21T13:24:25;3.33;;;2.10;;
13408;SDS011;6775;49.574;11.170;2023-03-21T13:26:57;3.00;;;2.20;;
13408;SDS011;6775;49.574;11.170;2023-03-21T13:29:30;2.10;;;1.90;;
13408;SDS011;6775;49.574;11.170;2023-03-21T13:32:05;1.77;;;1.50;;
13408;SDS011;6775;49.574;11.170;2023-03-21T13:34:38;2.33;;;1.57;;
13408;SDS011;6775;49.574;11.170;2023-03-21T13:37:09;2.40;;;1.87;;
13408;SDS011;6775;49.574;11.170;2023-03-21T13:39:43;1.70;;;1.60;;
13408;SDS011;6775;49.574;11.170;2023-03-21T13:42:16;2.80;;;1.57;;
13408;SDS011;6775;49.574;11.170;2023-03-21T13:44:51;4.23;;;2.47;;
13408;SDS011;6775;49.574;11.170;2023-03-21T13:47:23;2.53;;;1.70;;
13408;SDS011;6775;49.574;11.170;2023-03-21T13:55:58;2.40;;;1.60;;
13408;SDS011;6775;49.574;11.170;2023-03-21T13:58:51;1.43;;;1.30;;
13408;SDS011;6775;49.574;11.170;2023-03-21T14:01:37;2.53;;;1.87;;
13408;SDS011;6775;49.574;11.170;2023-03-21T14:04:10;2.03;;;1.53;;
13408;SDS011;6775;49.574;11.170;2023-03-21T14:06:43;3.20;;;2.00;;
13408;SDS011;6775;49.574;11.170;2023-03-21T14:09:16;2.83;;;2.10;;
13408;SDS011;6775;49.574;11.170;2023-03-21T14:11:48;3.97;;;2.20;;
13408;SDS011;6775;49.574;11.170;2023-03-21T14:14:22;2.07;;;1.83;;
13408;SDS011;6775;49.574;11.170;2023-03-21T14:16:56;1.90;;;1.80;;
13408;SDS011;6775;49.574;11.170;2023-03-21T14:19:27;3.03;;;1.90;;
13408;SDS011;6775;49.574;11.170;2023-03-21T14:21:57;1.70;;;1.60;;
13408;SDS011;6775;49.574;11.170;2023-03-21T14:24:25;1.80;;;1.53;;
13408;SDS011;6775;49.574;11.170;2023-03-21T14:26:53;3.47;;;2.30;;
13408;SDS011;6775;49.574;11.170;2023-03-21T14:29:22;2.30;;;1.43;;
13408;SDS011;6775;49.574;11.170;2023-03-21T14:31:54;1.63;;;1.47;;
13408;SDS011;6775;49.574;11.170;2023-03-21T14:34:25;1.57;;;1.20;;
13408;SDS011;6775;49.574;11.170;2023-03-21T14:36:54;2.50;;;1.40;;
13408;SDS011;6775;49.574;11.170;2023-03-21T14:39:27;2.27;;;1.60;;
13408;SDS011;6775;49.574;11.170;2023-03-21T14:41:56;1.83;;;1.40;;
13408;SDS011;6775;49.574;11.170;2023-03-21T14:44:31;1.40;;;1.30;;
13408;SDS011;6775;49.574;11.170;2023-03-21T14:47:19;1.63;;;1.17;;
13408;SDS011;6775;49.574;11.170;2023-03-21T14:49:48;1.23;;;0.90;;
13408;SDS011;6775;49.574;11.170;2023-03-21T14:52:19;1.87;;;1.00;;
13408;SDS011;6775;49.574;11.170;2023-03-21T14:54:52;1.20;;;1.10;;
13408;SDS011;6775;49.574;11.170;2023-03-21T14:57:22;1.40;;;1.10;;
13408;SDS011;6775;49.574;11.170;2023-03-21T14:59:53;1.10;;;0.90;;
13408;SDS011;6775;49.574;11.170;2023-03-21T15:02:24;1.03;;;0.93;;
13408;SDS011;6775;49.574;11.170;2023-03-21T15:04:54;1.93;;;0.90;;
13408;SDS011;6775;49.574;11.170;2023-03-21T15:07:25;1.60;;;1.00;;
13408;SDS011;6775;49.574;11.170;2023-03-21T15:09:56;1.60;;;1.10;;
13408;SDS011;6775;49.574;11.170;2023-03-21T15:12:26;2.00;;;1.00;;
13408;SDS011;6775;49.574;11.170;2023-03-21T15:14:53;1.20;;;1.10;;
13408;SDS011;6775;49.574;11.170;2023-03-21T15:17:22;1.10;;;1.00;;
13408;SDS011;6775;49.574;11.170;2023-03-21T15:19:51;1.03;;;0.90;;
13408;SDS011;6775;49.574;11.170;2023-03-21T15:22:21;1.30;;;1.20;;
13408;SDS011;6775;49.574;11.170;2023-03-21T15:24:56;1.10;;;1.00;;
13408;SDS011;6775;49.574;11.170;2023-03-21T15:27:26;1.00;;;0.90;;
13408;SDS011;6775;49.574;11.170;2023-03-21T15:29:58;1.80;;;1.10;;
13408;SDS011;6775;49.574;11.170;2023-03-21T15:32:26;0.97;;;0.97;;